Clingman, North Carolina
Current Conditions -  °F | °C
As of 10:55 AM on Thursday 27 Nov 2014 (Local Time) from KUKF Reporting Station
Overcast Overcast  
Wind Chill: 40°   Ceiling: 4400
Heat Index: 43°   Visibility: 10mi
Dew Point: 32°   Wind: 5mph
Humidity: 66%   Direction: 330°NNW
Pressure: 30.14"   Gusts: NA
Location:  36.1763°N, 80.9244°W
Report Text: KUKF 271555Z AUTO 33004KT 10SM SCT031 SCT038 OVC044 06/00 A3014 RMK AO2
Loading
Personal Weather Stations






























Interactive Weather Map New forecast layout! Learn more

10-Day Weather Forecast

Advertisements
Track Severe Weather on mobile